createdAt,value
2023-03-14T00:01:46.277Z,62.34
2023-03-14T00:04:48.463Z,62.66
2023-03-14T00:07:50.903Z,62.92
2023-03-14T00:10:52.909Z,63.52
2023-03-14T00:13:54.928Z,63.60
2023-03-14T00:16:56.913Z,63.89
2023-03-14T00:20:05.299Z,63.95
2023-03-14T00:23:07.252Z,63.67
2023-03-14T00:26:15.544Z,64.02
2023-03-14T00:29:17.523Z,64.84
2023-03-14T00:32:21.219Z,65.18
2023-03-14T00:35:23.585Z,65.66
2023-03-14T00:38:26.251Z,66.51
2023-03-14T00:41:28.301Z,65.89
2023-03-14T00:44:30.300Z,66.65
2023-03-14T00:47:32.852Z,66.30
2023-03-14T00:50:34.829Z,66.18
2023-03-14T00:53:38.675Z,66.55
2023-03-14T00:56:40.654Z,66.06
2023-03-14T00:59:42.699Z,66.06
2023-03-14T01:02:45.111Z,65.98
2023-03-14T01:05:47.158Z,66.00
2023-03-14T01:08:51.292Z,66.06
2023-03-14T01:11:53.553Z,65.79
2023-03-14T01:14:55.570Z,66.09
2023-03-14T01:17:57.564Z,66.24
2023-03-14T01:20:59.896Z,66.32
2023-03-14T01:24:04.646Z,66.43
2023-03-14T01:27:06.825Z,66.19
2023-03-14T01:30:10.768Z,66.40
2023-03-14T01:33:15.524Z,66.51
2023-03-14T01:36:19.831Z,66.96
2023-03-14T01:39:22.191Z,66.54
2023-03-14T01:42:24.327Z,66.75
2023-03-14T01:46:03.970Z,66.95
2023-03-14T01:49:16.070Z,67.09
2023-03-14T01:52:34.909Z,67.11
2023-03-14T01:55:37.749Z,67.14
2023-03-14T01:58:43.337Z,67.28
2023-03-14T02:01:48.489Z,67.16
2023-03-14T02:04:51.835Z,67.68
2023-03-14T02:07:59.908Z,67.75
2023-03-14T02:11:10.138Z,67.82
2023-03-14T02:14:40.222Z,67.95
2023-03-14T02:18:07.645Z,68.06
2023-03-14T02:21:45.141Z,68.22
2023-03-14T02:24:59.055Z,68.53
2023-03-14T02:28:02.580Z,68.46
2023-03-14T02:31:05.007Z,68.69
2023-03-14T02:34:09.683Z,68.95
2023-03-14T02:37:14.674Z,69.21
2023-03-14T02:40:17.492Z,69.46
2023-03-14T02:43:20.095Z,69.36
2023-03-14T02:46:28.650Z,69.79
2023-03-14T02:49:34.676Z,69.70
2023-03-14T02:52:36.788Z,69.84
2023-03-14T02:55:38.939Z,70.01
2023-03-14T02:58:46.769Z,69.91
2023-03-14T03:02:18.008Z,70.05
2023-03-14T03:05:20.062Z,69.76
2023-03-14T03:08:24.304Z,69.88
2023-03-14T03:11:26.354Z,70.05
2023-03-14T03:14:28.547Z,70.05
2023-03-14T03:17:34.439Z,70.05
2023-03-14T03:20:36.782Z,70.28
2023-03-14T03:23:38.831Z,70.29
2023-03-14T03:26:41.504Z,70.35
2023-03-14T03:29:45.766Z,70.33
2023-03-14T03:32:48.171Z,70.57
2023-03-14T03:35:52.005Z,70.38
2023-03-14T03:39:04.735Z,70.54
2023-03-14T03:42:06.898Z,70.11
2023-03-14T03:45:09.502Z,70.47
2023-03-14T03:48:17.355Z,70.28
2023-03-14T03:51:19.470Z,70.16
2023-03-14T03:54:21.805Z,70.20
2023-03-14T03:57:23.896Z,70.05
2023-03-14T04:00:26.132Z,70.20
2023-03-14T04:03:28.286Z,69.90
2023-03-14T04:06:32.114Z,69.97
2023-03-14T04:09:36.307Z,69.65
2023-03-14T04:12:54.561Z,70.09
2023-03-14T04:16:00.181Z,70.28
2023-03-14T04:19:04.346Z,70.64
2023-03-14T04:22:07.484Z,70.63
2023-03-14T04:25:18.589Z,70.80
2023-03-14T04:28:25.229Z,70.83
2023-03-14T04:31:27.309Z,70.73
2023-03-14T04:34:29.481Z,70.54
2023-03-14T04:37:33.034Z,70.30
2023-03-14T04:40:37.636Z,70.10
2023-03-14T04:43:41.420Z,69.93
2023-03-14T04:46:46.510Z,69.72
2023-03-14T04:49:49.216Z,69.73
2023-03-14T04:52:52.072Z,69.82
2023-03-14T04:55:56.724Z,69.62
2023-03-14T04:59:01.802Z,69.42
2023-03-14T05:02:05.004Z,69.69
2023-03-14T05:05:27.272Z,69.41
2023-03-14T05:08:44.176Z,69.29
2023-03-14T05:12:04.848Z,68.91
2023-03-14T05:15:27.322Z,68.96
2023-03-14T05:18:55.287Z,68.68
2023-03-14T05:22:06.463Z,68.66
2023-03-14T05:25:26.879Z,68.80
2023-03-14T05:28:43.835Z,69.08
2023-03-14T05:31:53.821Z,69.21
2023-03-14T05:35:05.187Z,69.26
2023-03-14T05:38:24.096Z,69.41
2023-03-14T05:41:37.900Z,69.52
2023-03-14T05:44:58.662Z,69.55
2023-03-14T05:48:26.638Z,69.74
2023-03-14T05:51:37.850Z,69.74
2023-03-14T05:55:09.348Z,69.55
2023-03-14T05:58:11.427Z,69.64
2023-03-14T06:01:45.569Z,69.56
2023-03-14T06:04:54.493Z,69.34
2023-03-14T06:07:56.598Z,69.49
2023-03-14T06:10:59.772Z,69.13
2023-03-14T06:14:05.982Z,69.05
2023-03-14T06:17:08.111Z,68.85
2023-03-14T06:20:17.768Z,68.78
2023-03-14T06:23:20.200Z,68.26
2023-03-14T06:26:24.486Z,68.34
2023-03-14T06:29:26.509Z,68.01
2023-03-14T06:32:28.751Z,68.19
2023-03-14T06:35:35.490Z,68.16
2023-03-14T06:38:37.660Z,67.88
2023-03-14T06:41:41.116Z,67.94
2023-03-14T06:44:44.928Z,67.50
2023-03-14T06:47:47.193Z,66.91
2023-03-14T06:50:50.356Z,66.77
2023-03-14T06:53:52.958Z,66.61
2023-03-14T06:56:58.224Z,66.71
2023-03-14T07:00:00.361Z,66.39
2023-03-14T07:03:02.717Z,65.11
2023-03-14T07:06:08.707Z,65.59
2023-03-14T07:09:11.629Z,66.87
2023-03-14T07:12:18.124Z,65.35
2023-03-14T07:15:20.640Z,65.00
2023-03-14T07:18:27.544Z,63.62
2023-03-14T07:21:33.014Z,61.89
2023-03-14T07:24:35.781Z,59.35
2023-03-14T07:27:37.976Z,58.18
2023-03-14T07:30:40.151Z,57.34
2023-03-14T07:33:49.811Z,56.24
2023-03-14T07:36:52.704Z,56.39
2023-03-14T07:39:54.903Z,55.67
2023-03-14T07:43:01.144Z,54.04
2023-03-14T07:46:13.360Z,54.53
2023-03-14T07:49:15.343Z,53.70
2023-03-14T07:52:17.386Z,54.75
2023-03-14T07:55:19.539Z,55.01
2023-03-14T07:58:25.407Z,54.71
2023-03-14T08:01:27.429Z,54.96
2023-03-14T08:04:30.055Z,54.88
2023-03-14T08:07:32.086Z,54.15
2023-03-14T08:10:35.069Z,54.54
2023-03-14T08:13:38.449Z,55.56
2023-03-14T08:16:40.483Z,55.65
2023-03-14T08:19:43.350Z,54.58
2023-03-14T08:22:45.656Z,55.06
2023-03-14T08:25:51.374Z,54.36
2023-03-14T08:28:53.426Z,54.45
2023-03-14T08:31:56.147Z,54.87
2023-03-14T08:34:58.245Z,54.97
2023-03-14T08:38:00.807Z,53.89
2023-03-14T08:41:03.757Z,53.90
2023-03-14T08:44:06.038Z,54.29
2023-03-14T08:47:08.163Z,54.31
2023-03-14T08:50:15.519Z,55.27
2023-03-14T08:53:19.357Z,55.23
2023-03-14T08:56:21.435Z,55.08
2023-03-14T08:59:23.799Z,55.74
2023-03-14T09:02:27.218Z,55.28
2023-03-14T09:05:29.240Z,55.67
2023-03-14T09:08:31.288Z,55.63
2023-03-14T09:11:33.946Z,55.58
2023-03-14T09:14:37.366Z,55.13
2023-03-14T09:17:39.499Z,55.41
2023-03-14T09:20:41.612Z,54.08
2023-03-14T09:23:45.734Z,53.98
2023-03-14T09:26:48.669Z,53.78
2023-03-14T09:29:50.693Z,54.66
2023-03-14T09:32:52.829Z,54.99
2023-03-14T09:35:54.887Z,54.73
2023-03-14T09:38:57.049Z,55.70
2023-03-14T09:42:04.583Z,55.80
2023-03-14T09:45:12.173Z,55.77
2023-03-14T09:48:21.250Z,56.39
2023-03-14T09:51:24.812Z,56.05
2023-03-14T09:54:42.198Z,56.81
2023-03-14T09:57:46.314Z,56.93
2023-03-14T10:00:48.702Z,56.43
2023-03-14T10:03:55.465Z,56.17
2023-03-14T10:06:57.524Z,55.83
2023-03-14T10:10:00.866Z,55.30
2023-03-14T10:13:25.451Z,54.77
2023-03-14T10:16:32.449Z,54.61
2023-03-14T10:19:36.806Z,54.53
2023-03-14T10:22:39.363Z,54.85
2023-03-14T10:25:44.207Z,52.39
2023-03-14T10:28:49.286Z,53.50
2023-03-14T10:35:08.930Z,55.52
2023-03-14T10:38:18.135Z,53.28
2023-03-14T10:41:28.683Z,54.31
2023-03-14T10:44:32.306Z,55.97
2023-03-14T10:47:34.861Z,57.32
2023-03-14T10:50:37.441Z,58.30
2023-03-14T10:53:49.301Z,58.28
2023-03-14T10:56:59.687Z,58.60
2023-03-14T11:00:03.523Z,58.67
2023-03-14T11:03:14.811Z,58.33
2023-03-14T11:06:29.884Z,57.27
2023-03-14T11:09:47.494Z,57.23
2023-03-14T11:13:13.522Z,55.56
2023-03-14T11:17:08.422Z,55.90
2023-03-14T11:20:34.054Z,55.91
2023-03-14T11:24:04.253Z,56.01
2023-03-14T11:27:19.859Z,54.98
2023-03-14T11:30:43.272Z,55.29
2023-03-14T11:34:03.270Z,54.92
2023-03-14T11:37:05.228Z,55.04
2023-03-14T11:40:20.886Z,53.73
2023-03-14T11:43:41.316Z,55.16
2023-03-14T11:46:52.125Z,54.52
2023-03-14T11:50:18.343Z,54.52
2023-03-14T11:54:05.104Z,55.08
2023-03-14T11:57:16.431Z,54.43
2023-03-14T12:00:20.433Z,53.99
2023-03-14T12:03:34.933Z,54.45
2023-03-14T12:06:49.543Z,54.23
2023-03-14T12:09:52.802Z,54.46
2023-03-14T12:12:54.947Z,53.74
2023-03-14T12:16:02.082Z,54.26
2023-03-14T12:19:26.479Z,54.46
2023-03-14T12:22:31.322Z,54.41
2023-03-14T12:25:35.056Z,55.38
2023-03-14T12:28:37.073Z,55.04
2023-03-14T12:32:02.277Z,54.91
2023-03-14T12:35:37.123Z,54.42
2023-03-14T12:39:00.844Z,54.43
2023-03-14T12:42:21.922Z,54.25
2023-03-14T12:45:28.871Z,53.79
2023-03-14T12:48:31.006Z,53.96
2023-03-14T12:51:38.053Z,53.69
2023-03-14T12:55:17.293Z,53.01
2023-03-14T12:58:32.008Z,52.22
2023-03-14T13:01:36.023Z,52.11
2023-03-14T13:05:03.532Z,52.79
2023-03-14T13:08:08.028Z,51.96
2023-03-14T13:11:30.376Z,51.97
2023-03-14T13:14:33.065Z,52.07
2023-03-14T13:17:37.186Z,51.93
2023-03-14T13:20:52.793Z,52.13
2023-03-14T13:24:00.562Z,52.98
2023-03-14T13:27:02.717Z,52.83
2023-03-14T13:30:17.247Z,52.67
2023-03-14T13:33:23.963Z,52.88
2023-03-14T13:36:27.679Z,53.85
2023-03-14T13:39:31.239Z,53.68
2023-03-14T13:42:33.507Z,53.67
2023-03-14T13:45:45.596Z,54.08
2023-03-14T13:49:19.020Z,54.20
2023-03-14T13:52:36.700Z,54.24
2023-03-14T13:55:39.546Z,54.73
2023-03-14T13:58:42.488Z,55.78
2023-03-14T14:01:44.932Z,56.00
2023-03-14T14:04:49.091Z,55.75
2023-03-14T14:07:53.383Z,55.43
2023-03-14T14:11:01.601Z,55.65
2023-03-14T14:14:05.211Z,54.83
2023-03-14T14:17:19.067Z,55.04
2023-03-14T14:20:36.033Z,54.75
2023-03-14T14:23:39.852Z,54.86
2023-03-14T14:26:59.902Z,53.42
2023-03-14T14:30:08.212Z,53.45
2023-03-14T14:33:28.627Z,53.03
2023-03-14T14:36:48.259Z,52.72
2023-03-14T14:39:53.273Z,52.72
2023-03-14T14:43:03.012Z,52.74
2023-03-14T14:46:09.551Z,53.20
2023-03-14T14:49:15.400Z,52.97
2023-03-14T14:52:19.910Z,52.52
2023-03-14T14:55:21.935Z,52.64
2023-03-14T14:58:36.156Z,53.07
2023-03-14T15:01:40.728Z,53.17
2023-03-14T15:04:42.849Z,53.25
2023-03-14T15:07:45.671Z,54.37
2023-03-14T15:10:47.811Z,55.08
2023-03-14T15:13:50.572Z,55.32
2023-03-14T15:16:52.642Z,55.83
2023-03-14T15:19:54.684Z,57.79
2023-03-14T15:22:56.693Z,58.03
2023-03-14T15:25:58.650Z,58.16
2023-03-14T15:29:00.718Z,59.16
2023-03-14T15:32:02.912Z,60.57
2023-03-14T15:35:05.411Z,60.65
2023-03-14T15:38:14.857Z,61.77
2023-03-14T15:41:17.376Z,60.42
2023-03-14T15:44:19.638Z,60.75
2023-03-14T15:47:21.718Z,60.18
2023-03-14T15:50:24.641Z,60.03
2023-03-14T15:53:26.665Z,60.27
2023-03-14T15:56:32.319Z,61.10
2023-03-14T15:59:34.987Z,59.07
2023-03-14T16:02:41.223Z,58.67
2023-03-14T16:05:43.583Z,57.84
2023-03-14T16:08:46.193Z,58.07
2023-03-14T16:11:48.226Z,58.58
2023-03-14T16:14:50.285Z,59.21
2023-03-14T16:17:56.125Z,59.32
2023-03-14T16:21:03.282Z,60.46
2023-03-14T16:24:07.225Z,60.81
2023-03-14T16:27:09.646Z,61.08
2023-03-14T16:30:16.710Z,61.59
2023-03-14T16:33:19.694Z,61.03
2023-03-14T16:36:22.113Z,61.68
2023-03-14T16:39:24.269Z,62.23
2023-03-14T16:42:26.871Z,62.30
2023-03-14T16:45:29.452Z,62.48
2023-03-14T16:48:31.812Z,63.13
2023-03-14T16:51:34.262Z,63.43
2023-03-14T16:54:36.281Z,63.83
2023-03-14T16:57:38.342Z,63.92
2023-03-14T17:00:40.722Z,64.64
2023-03-14T17:03:47.952Z,65.06
2023-03-14T17:06:50.257Z,65.57
2023-03-14T17:09:54.285Z,65.87
2023-03-14T17:12:56.816Z,65.69
2023-03-14T17:16:01.767Z,65.54
2023-03-14T17:19:04.454Z,65.66
2023-03-14T17:22:21.957Z,65.86
2023-03-14T17:25:25.724Z,66.43
2023-03-14T17:28:28.466Z,66.27
2023-03-14T17:31:32.597Z,66.72
2023-03-14T17:34:35.857Z,67.24
2023-03-14T17:37:38.578Z,67.24
2023-03-14T17:40:44.361Z,67.62
2023-03-14T17:43:47.436Z,67.40
2023-03-14T17:46:50.772Z,67.54
2023-03-14T17:49:53.580Z,67.56
2023-03-14T17:52:56.535Z,67.61
2023-03-14T17:55:59.257Z,67.44
2023-03-14T17:59:03.566Z,67.36
2023-03-14T18:02:07.298Z,67.27
2023-03-14T18:05:11.870Z,67.71
2023-03-14T18:08:15.861Z,67.92
2023-03-14T18:11:19.547Z,68.22
2023-03-14T18:14:23.503Z,68.43
2023-03-14T18:17:26.551Z,68.26
2023-03-14T18:20:31.928Z,67.83
2023-03-14T18:23:36.649Z,68.51
2023-03-14T18:26:40.053Z,64.94
2023-03-14T18:29:43.682Z,62.75
2023-03-14T18:32:46.771Z,60.97
2023-03-14T18:35:55.357Z,58.76
2023-03-14T18:38:59.462Z,57.86
2023-03-14T18:42:02.903Z,58.34
2023-03-14T18:45:13.514Z,59.50
2023-03-14T18:48:17.211Z,59.24
2023-03-14T18:51:21.425Z,59.35
2023-03-14T18:54:24.262Z,59.51
2023-03-14T18:57:28.110Z,59.59
2023-03-14T19:00:30.801Z,59.70
2023-03-14T19:03:35.737Z,59.94
2023-03-14T19:06:39.356Z,59.01
2023-03-14T19:09:43.101Z,58.29
2023-03-14T19:12:48.775Z,58.33
2023-03-14T19:15:53.962Z,58.89
2023-03-14T19:18:58.882Z,58.90
2023-03-14T19:22:01.702Z,58.54
2023-03-14T19:25:06.648Z,58.39
2023-03-14T19:28:11.162Z,58.07
2023-03-14T19:31:14.906Z,58.48
2023-03-14T19:34:18.766Z,58.73
2023-03-14T19:37:22.753Z,58.63
2023-03-14T19:40:25.450Z,58.38
2023-03-14T19:43:28.243Z,58.76
2023-03-14T19:46:33.856Z,58.67
2023-03-14T19:49:37.390Z,58.88
2023-03-14T19:52:50.110Z,58.00
2023-03-14T19:55:55.042Z,57.40
2023-03-14T19:59:00.671Z,57.16
2023-03-14T20:02:05.320Z,56.76
2023-03-14T20:05:09.166Z,56.18
2023-03-14T20:08:12.739Z,55.64
2023-03-14T20:11:16.306Z,55.22
2023-03-14T20:14:19.827Z,55.10
2023-03-14T20:17:23.164Z,55.17
2023-03-14T20:20:28.462Z,53.67
2023-03-14T20:23:35.026Z,53.41
2023-03-14T20:26:39.217Z,53.50
2023-03-14T20:29:42.260Z,53.82
2023-03-14T20:32:46.724Z,54.29
2023-03-14T20:36:00.768Z,54.49
2023-03-14T20:39:05.407Z,53.46
2023-03-14T20:42:08.877Z,52.83
2023-03-14T20:45:12.746Z,52.12
2023-03-14T20:48:16.198Z,51.54
2023-03-14T20:51:20.962Z,52.16
2023-03-14T20:54:24.254Z,51.99
2023-03-14T20:57:29.036Z,52.12
2023-03-14T21:00:32.832Z,51.56
2023-03-14T21:07:00.245Z,51.60
2023-03-14T21:10:04.563Z,51.31
2023-03-14T21:13:07.465Z,51.19
2023-03-14T21:16:10.384Z,51.44
2023-03-14T21:19:13.905Z,51.14
2023-03-14T21:22:18.876Z,51.36
2023-03-14T21:25:21.685Z,50.87
2023-03-14T21:28:24.742Z,50.04
2023-03-14T21:31:28.095Z,50.17
2023-03-14T21:34:30.898Z,50.31
2023-03-14T21:37:34.822Z,48.29
2023-03-14T21:40:38.083Z,48.05
2023-03-14T21:43:44.115Z,47.42
2023-03-14T21:46:46.538Z,46.20
2023-03-14T21:49:50.203Z,46.44
2023-03-14T21:52:57.031Z,46.05
2023-03-14T21:55:59.378Z,46.72
2023-03-14T21:59:01.523Z,45.88
2023-03-14T22:02:06.322Z,46.19
2023-03-14T22:05:13.556Z,46.85
2023-03-14T22:08:16.924Z,46.45
2023-03-14T22:11:18.836Z,46.55
2023-03-14T22:14:21.114Z,47.32
2023-03-14T22:17:23.075Z,47.88
2023-03-14T22:20:25.063Z,48.13
2023-03-14T22:23:27.211Z,48.29
2023-03-14T22:26:29.218Z,48.40
2023-03-14T22:29:31.372Z,48.35
2023-03-14T22:32:33.398Z,48.50
2023-03-14T22:35:35.551Z,48.60
2023-03-14T22:38:37.530Z,49.03
2023-03-14T22:41:39.538Z,49.07
2023-03-14T22:44:41.433Z,49.67
2023-03-14T22:47:43.372Z,49.17
2023-03-14T22:50:45.311Z,49.59
2023-03-14T22:53:49.345Z,49.24
2023-03-14T22:56:51.337Z,48.85
2023-03-14T22:59:53.533Z,48.52
2023-03-14T23:02:55.538Z,48.91
2023-03-14T23:05:57.655Z,48.45
2023-03-14T23:08:59.597Z,48.64
2023-03-14T23:12:02.055Z,48.96
2023-03-14T23:15:06.466Z,48.98
2023-03-14T23:18:09.440Z,48.31
2023-03-14T23:21:17.095Z,47.88
2023-03-14T23:24:19.174Z,47.84
2023-03-14T23:27:21.677Z,47.98
2023-03-14T23:30:23.746Z,47.88
2023-03-14T23:33:27.466Z,48.00
2023-03-14T23:36:30.112Z,47.72
2023-03-14T23:39:32.199Z,48.37
2023-03-14T23:42:35.563Z,48.53
2023-03-14T23:45:37.623Z,48.11
2023-03-14T23:48:39.978Z,48.68
2023-03-14T23:51:41.930Z,49.10
2023-03-14T23:54:43.876Z,49.91
2023-03-14T23:57:45.884Z,49.68
